createdAt,value
2023-02-13T00:00:06.447Z,-3.61
2023-02-13T00:01:06.446Z,-3.61
2023-02-13T00:02:06.487Z,-3.72
2023-02-13T00:03:06.506Z,-3.89
2023-02-13T00:04:06.455Z,-4.06
2023-02-13T00:05:06.503Z,-4.33
2023-02-13T00:06:06.463Z,-3.89
2023-02-13T00:07:06.472Z,-4.06
2023-02-13T00:08:06.458Z,-4.06
2023-02-13T00:09:07.409Z,-4.06
2023-02-13T00:10:06.476Z,-4.22
2023-02-13T00:11:06.457Z,-4.06
2023-02-13T00:12:06.456Z,-4.33
2023-02-13T00:13:06.470Z,-4.33
2023-02-13T00:14:06.455Z,-4.78
2023-02-13T00:15:06.458Z,-4.94
2023-02-13T00:16:06.544Z,-4.94
2023-02-13T00:17:06.455Z,-4.94
2023-02-13T00:18:06.458Z,-4.94
2023-02-13T00:19:06.474Z,-4.78
2023-02-13T00:20:06.472Z,-4.78
2023-02-13T00:21:06.469Z,-4.94
2023-02-13T00:22:06.469Z,-4.78
2023-02-13T00:23:06.508Z,-4.33
2023-02-13T00:24:06.472Z,-4.33
2023-02-13T00:25:06.469Z,-4.22
2023-02-13T00:26:06.474Z,-4.33
2023-02-13T00:27:06.483Z,-4.33
2023-02-13T00:28:06.490Z,-4.61
2023-02-13T00:29:06.481Z,-4.33
2023-02-13T00:30:06.484Z,-4.5
2023-02-13T00:31:06.551Z,-4.33
2023-02-13T00:32:06.566Z,-4.33
2023-02-13T00:33:06.475Z,-4.33
2023-02-13T00:34:06.467Z,-3.89
2023-02-13T00:35:06.479Z,-4.06
2023-02-13T00:36:06.466Z,-4.61
2023-02-13T00:37:06.470Z,-4.33
2023-02-13T00:38:06.473Z,-4.78
2023-02-13T00:39:06.511Z,-5.06
2023-02-13T00:40:06.481Z,-4.78
2023-02-13T00:41:06.500Z,-4.78
2023-02-13T00:42:06.489Z,-5.06
2023-02-13T00:43:06.480Z,-4.94
2023-02-13T00:44:06.481Z,-4.94
2023-02-13T00:45:06.502Z,-5.39
2023-02-13T00:46:06.485Z,-5.22
2023-02-13T00:47:06.482Z,-5.22
2023-02-13T00:48:06.487Z,-5.39
2023-02-13T00:49:06.479Z,-5.22
2023-02-13T00:50:06.489Z,-5.39
2023-02-13T00:51:06.496Z,-5.22
2023-02-13T00:52:06.481Z,-5.22
2023-02-13T00:53:06.491Z,-5.06
2023-02-13T00:54:06.504Z,-5.22
2023-02-13T00:55:06.541Z,-4.78
2023-02-13T00:56:06.499Z,-4.78
2023-02-13T00:57:06.506Z,-4.94
2023-02-13T00:58:06.520Z,-4.78
2023-02-13T00:59:06.500Z,-4.5
2023-02-13T01:00:06.506Z,-4.5
2023-02-13T01:01:06.499Z,-4.78
2023-02-13T01:02:06.503Z,-4.33
2023-02-13T01:03:06.498Z,-4.06
2023-02-13T01:04:06.518Z,-4.33
2023-02-13T01:05:06.506Z,-4.06
2023-02-13T01:06:06.508Z,-3.89
2023-02-13T01:07:06.503Z,-3.89
2023-02-13T01:08:06.520Z,-4.33
2023-02-13T01:09:06.504Z,-4.33
2023-02-13T01:10:06.504Z,-3.89
2023-02-13T01:11:06.535Z,-3.89
2023-02-13T01:12:06.508Z,-4.06
2023-02-13T01:13:06.511Z,-4.06
2023-02-13T01:14:06.513Z,-4.22
2023-02-13T01:15:06.518Z,-4.33
2023-02-13T01:16:06.542Z,-4.61
2023-02-13T01:17:06.519Z,-4.33
2023-02-13T01:18:06.523Z,-4.33
2023-02-13T01:19:06.519Z,-5.06
2023-02-13T01:20:06.523Z,-4.78
2023-02-13T01:21:06.519Z,-4.61
2023-02-13T01:22:06.525Z,-5.06
2023-02-13T01:23:06.525Z,-4.33
2023-02-13T01:24:06.516Z,-4.33
2023-02-13T01:25:06.522Z,-4.06
2023-02-13T01:26:06.525Z,-4.06
2023-02-13T01:27:06.555Z,-4.33
2023-02-13T01:28:06.538Z,-4.33
2023-02-13T01:29:06.534Z,-4.61
2023-02-13T01:30:06.536Z,-4.61
2023-02-13T01:31:06.653Z,-4.61
2023-02-13T01:32:06.599Z,-4.22
2023-02-13T01:33:06.539Z,-4.33
2023-02-13T01:34:06.534Z,-4.22
2023-02-13T01:35:06.532Z,-4.22
2023-02-13T01:36:06.532Z,-4.22
2023-02-13T01:37:06.524Z,-4.22
2023-02-13T01:38:06.520Z,-4.33
2023-02-13T01:39:06.517Z,-4.5
2023-02-13T01:40:06.527Z,-4.5
2023-02-13T01:41:06.533Z,-4.78
2023-02-13T01:42:06.550Z,-5.06
2023-02-13T01:43:06.555Z,-4.78
2023-02-13T01:44:06.531Z,-5.06
2023-02-13T01:45:06.531Z,-5.06
2023-02-13T01:46:06.558Z,-5.39
2023-02-13T01:47:06.534Z,-5.06
2023-02-13T01:48:06.534Z,-5.06
2023-02-13T01:49:06.535Z,-5.22
2023-02-13T01:50:06.539Z,-5.22
2023-02-13T01:51:06.543Z,-5.22
2023-02-13T01:52:06.534Z,-5.06
2023-02-13T01:53:06.522Z,-5.22
2023-02-13T01:54:06.536Z,-5.06
2023-02-13T01:55:06.536Z,-5.06
2023-02-13T01:56:06.533Z,-5.06
2023-02-13T01:57:06.536Z,-4.78
2023-02-13T01:58:06.544Z,-4.61
2023-02-13T01:59:06.570Z,-4.5
2023-02-13T02:00:06.542Z,-4.33
2023-02-13T02:01:06.546Z,-4.22
2023-02-13T02:02:06.596Z,-4.22
2023-02-13T02:03:06.547Z,-4.22
2023-02-13T02:04:06.538Z,-4.22
2023-02-13T02:05:06.536Z,-4.33
2023-02-13T02:06:06.545Z,-4.06
2023-02-13T02:07:06.545Z,-4.33
2023-02-13T02:08:06.557Z,-4.22
2023-02-13T02:09:06.565Z,-4.06
2023-02-13T02:10:06.534Z,-4.06
2023-02-13T02:11:06.541Z,-3.89
2023-02-13T02:12:06.544Z,-3.89
2023-02-13T02:13:06.550Z,-4.22
2023-02-13T02:14:06.580Z,-3.89
2023-02-13T02:15:06.576Z,-4.06
2023-02-13T02:16:06.611Z,-3.72
2023-02-13T02:17:06.547Z,-3.89
2023-02-13T02:18:06.550Z,-4.33
2023-02-13T02:19:06.557Z,-4.5
2023-02-13T02:20:06.560Z,-4.78
2023-02-13T02:21:06.561Z,-4.94
2023-02-13T02:22:06.560Z,-5.06
2023-02-13T02:23:06.560Z,-5.06
2023-02-13T02:24:06.550Z,-5.39
2023-02-13T02:25:06.553Z,-5.39
2023-02-13T02:26:06.541Z,-5.06
2023-02-13T02:27:06.571Z,-4.78
2023-02-13T02:28:06.571Z,-5.22
2023-02-13T02:29:06.554Z,-5.06
2023-02-13T02:30:06.576Z,-5.39
2023-02-13T02:31:06.713Z,-5.22
2023-02-13T02:32:06.559Z,-5.39
2023-02-13T02:33:06.557Z,-5.22
2023-02-13T02:34:06.557Z,-5.39
2023-02-13T02:35:06.561Z,-5.06
2023-02-13T02:36:06.565Z,-5.06
2023-02-13T02:37:06.571Z,-5.22
2023-02-13T02:38:06.566Z,-4.5
2023-02-13T02:39:06.576Z,-4.5
2023-02-13T02:40:06.571Z,-5.06
2023-02-13T02:41:06.585Z,-4.61
2023-02-13T02:42:06.557Z,-4.94
2023-02-13T02:43:06.581Z,-5.06
2023-02-13T02:44:06.564Z,-5.22
2023-02-13T02:45:06.569Z,-5.22
2023-02-13T02:46:06.567Z,-5.39
2023-02-13T02:47:06.580Z,-5.72
2023-02-13T02:48:06.567Z,-5.56
2023-02-13T02:49:06.552Z,-5.56
2023-02-13T02:50:06.570Z,-5.56
2023-02-13T02:51:06.560Z,-5.56
2023-02-13T02:52:06.557Z,-5.83
2023-02-13T02:53:06.574Z,-6
2023-02-13T02:54:06.553Z,-5.83
2023-02-13T02:55:06.577Z,-6
2023-02-13T02:56:06.567Z,-6
2023-02-13T02:57:06.569Z,-6.11
2023-02-13T02:58:06.556Z,-6.28
2023-02-13T02:59:06.562Z,-6
2023-02-13T03:00:06.585Z,-5.83
2023-02-13T03:01:06.621Z,-5.72
2023-02-13T03:02:06.571Z,-5.83
2023-02-13T03:03:06.589Z,-6.11
2023-02-13T03:04:06.648Z,-6
2023-02-13T03:05:06.566Z,-6
2023-02-13T03:06:06.572Z,-5.56
2023-02-13T03:07:06.561Z,-5.22
2023-02-13T03:08:06.569Z,-5.39
2023-02-13T03:09:06.581Z,-5.39
2023-02-13T03:10:06.579Z,-5.39
2023-02-13T03:11:06.562Z,-5.22
2023-02-13T03:12:06.565Z,-5.56
2023-02-13T03:13:06.563Z,-5.56
2023-02-13T03:14:06.571Z,-5.56
2023-02-13T03:15:06.572Z,-5.56
2023-02-13T03:16:06.595Z,-5.72
2023-02-13T03:17:06.566Z,-5.72
2023-02-13T03:18:06.592Z,-5.22
2023-02-13T03:19:06.631Z,-5.22
2023-02-13T03:20:06.583Z,-4.94
2023-02-13T03:21:06.562Z,-5.06
2023-02-13T03:22:06.563Z,-4.78
2023-02-13T03:23:06.583Z,-4.78
2023-02-13T03:24:06.570Z,-4.78
2023-02-13T03:25:06.575Z,-4.78
2023-02-13T03:26:06.610Z,-5.06
2023-02-13T03:27:06.563Z,-4.94
2023-02-13T03:28:06.677Z,-5.06
2023-02-13T03:29:06.564Z,-4.78
2023-02-13T03:30:06.567Z,-5.06
2023-02-13T03:31:06.624Z,-4.78
2023-02-13T03:32:06.574Z,-4.5
2023-02-13T03:33:06.571Z,-4.61
2023-02-13T03:34:06.581Z,-4.5
2023-02-13T03:35:06.597Z,-4.5
2023-02-13T03:36:06.570Z,-4.78
2023-02-13T03:37:06.583Z,-5.06
2023-02-13T03:38:06.574Z,-5.06
2023-02-13T03:39:06.569Z,-5.22
2023-02-13T03:40:06.576Z,-5.06
2023-02-13T03:41:06.573Z,-4.78
2023-02-13T03:42:06.567Z,-4.78
2023-02-13T03:43:06.565Z,-4.78
2023-02-13T03:44:06.568Z,-4.5
2023-02-13T03:45:06.571Z,-4.61
2023-02-13T03:46:06.616Z,-4.5
2023-02-13T03:47:06.575Z,-4.78
2023-02-13T03:48:06.569Z,-4.61
2023-02-13T03:49:06.569Z,-4.94
2023-02-13T03:50:06.570Z,-4.78
2023-02-13T03:51:06.670Z,-4.94
2023-02-13T03:52:06.575Z,-5.06
2023-02-13T03:53:06.591Z,-5.06
2023-02-13T03:54:06.580Z,-5.39
2023-02-13T03:55:06.585Z,-4.94
2023-02-13T03:56:06.594Z,-5.22
2023-02-13T03:57:06.585Z,-5.22
2023-02-13T03:58:06.594Z,-5.39
2023-02-13T03:59:06.576Z,-5.22
2023-02-13T04:00:06.584Z,-5.06
2023-02-13T04:01:06.627Z,-5.06
2023-02-13T04:02:06.616Z,-4.94
2023-02-13T04:03:06.573Z,-4.94
2023-02-13T04:04:06.579Z,-4.78
2023-02-13T04:05:06.583Z,-4.94
2023-02-13T04:06:06.584Z,-4.61
2023-02-13T04:07:06.615Z,-5.22
2023-02-13T04:08:06.595Z,-4.78
2023-02-13T04:09:06.577Z,-4.78
2023-02-13T04:10:06.586Z,-5.39
2023-02-13T04:11:06.590Z,-4.78
2023-02-13T04:12:06.583Z,-4.94
2023-02-13T04:13:06.606Z,-4.78
2023-02-13T04:14:06.581Z,-4.78
2023-02-13T04:15:06.592Z,-4.78
2023-02-13T04:16:06.579Z,-4.78
2023-02-13T04:17:06.579Z,-4.78
2023-02-13T04:18:07.015Z,-4.5
2023-02-13T04:19:06.598Z,-4.5
2023-02-13T04:20:06.593Z,-4.5
2023-02-13T04:21:06.588Z,-4.5
2023-02-13T04:22:06.585Z,-4.5
2023-02-13T04:23:06.603Z,-5.06
2023-02-13T04:24:06.584Z,-4.61
2023-02-13T04:25:06.585Z,-4.5
2023-02-13T04:26:06.589Z,-4.94
2023-02-13T04:27:06.578Z,-4.33
2023-02-13T04:28:06.665Z,-4.61
2023-02-13T04:29:06.585Z,-4.78
2023-02-13T04:30:06.591Z,-4.78
2023-02-13T04:31:06.707Z,-5.22
2023-02-13T04:32:06.594Z,-5.22
2023-02-13T04:33:06.594Z,-5.39
2023-02-13T04:34:06.593Z,-5.56
2023-02-13T04:35:06.620Z,-5.83
2023-02-13T04:36:06.588Z,-5.56
2023-02-13T04:37:06.603Z,-5.83
2023-02-13T04:38:06.606Z,-6.28
2023-02-13T04:39:06.631Z,-6.11
2023-02-13T04:40:06.604Z,-6
2023-02-13T04:41:06.600Z,-6
2023-02-13T04:42:06.600Z,-6.11
2023-02-13T04:43:06.600Z,-5.83
2023-02-13T04:44:06.606Z,-6.11
2023-02-13T04:45:06.599Z,-6.11
2023-02-13T04:46:06.743Z,-6.11
2023-02-13T04:47:06.603Z,-6.11
2023-02-13T04:48:06.593Z,-6
2023-02-13T04:49:06.600Z,-5.83
2023-02-13T04:50:06.595Z,-5.83
2023-02-13T04:51:06.598Z,-6
2023-02-13T04:52:06.610Z,-6.11
2023-02-13T04:53:06.616Z,-6.28
2023-02-13T04:54:06.601Z,-5.56
2023-02-13T04:55:06.645Z,-5.83
2023-02-13T04:56:06.601Z,-5.39
2023-02-13T04:57:06.598Z,-5.22
2023-02-13T04:58:06.612Z,-5.22
2023-02-13T04:59:06.600Z,-5.39
2023-02-13T05:00:06.603Z,-5.22
2023-02-13T05:01:06.668Z,-5.39
2023-02-13T05:02:06.614Z,-5.22
2023-02-13T05:03:06.611Z,-5.22
2023-02-13T05:04:06.617Z,-5.83
2023-02-13T05:05:06.621Z,-5.72
2023-02-13T05:06:06.605Z,-5.56
2023-02-13T05:07:06.592Z,-5.56
2023-02-13T05:08:06.602Z,-5.83
2023-02-13T05:09:06.613Z,-6
2023-02-13T05:10:06.615Z,-6
2023-02-13T05:11:06.631Z,-6
2023-02-13T05:12:06.604Z,-6.28
2023-02-13T05:13:06.606Z,-6.61
2023-02-13T05:14:06.599Z,-6.61
2023-02-13T05:15:06.615Z,-6.61
2023-02-13T05:16:06.658Z,-6.89
2023-02-13T05:17:06.605Z,-6.72
2023-02-13T05:18:06.614Z,-6.72
2023-02-13T05:19:06.602Z,-6.72
2023-02-13T05:20:06.615Z,-6.11
2023-02-13T05:21:06.610Z,-6.28
2023-02-13T05:22:06.635Z,-6.28
2023-02-13T05:23:06.615Z,-6.11
2023-02-13T05:24:06.610Z,-6.11
2023-02-13T05:25:06.623Z,-6
2023-02-13T05:26:06.619Z,-5.83
2023-02-13T05:27:06.640Z,-5.72
2023-02-13T05:28:06.640Z,-5.56
2023-02-13T05:29:06.633Z,-5.22
2023-02-13T05:30:06.626Z,-5.06
2023-02-13T05:31:06.794Z,-5.06
2023-02-13T05:32:06.665Z,-5.39
2023-02-13T05:33:06.630Z,-5.22
2023-02-13T05:34:06.623Z,-5.22
2023-02-13T05:35:06.626Z,-5.22
2023-02-13T05:36:06.630Z,-5.22
2023-02-13T05:37:06.627Z,-5.22
2023-02-13T05:38:06.623Z,-5.56
2023-02-13T05:39:06.623Z,-5.22
2023-02-13T05:40:06.658Z,-5.72
2023-02-13T05:41:06.629Z,-5.83
2023-02-13T05:42:06.621Z,-6.28
2023-02-13T05:43:06.664Z,-6
2023-02-13T05:44:06.639Z,-6
2023-02-13T05:45:06.633Z,-6
2023-02-13T05:46:06.681Z,-6
2023-02-13T05:47:06.625Z,-5.72
2023-02-13T05:48:06.631Z,-5.83
2023-02-13T05:49:06.634Z,-5.72
2023-02-13T05:50:06.630Z,-5.22
2023-02-13T05:51:06.644Z,-5.39
2023-02-13T05:52:06.632Z,-5.22
2023-02-13T05:53:06.644Z,-5.39
2023-02-13T05:54:06.632Z,-5.22
2023-02-13T05:55:06.628Z,-5.22
2023-02-13T05:56:06.636Z,-5.22
2023-02-13T05:57:06.637Z,-5.39
2023-02-13T05:58:06.633Z,-5.22
2023-02-13T05:59:06.657Z,-5.22
2023-02-13T06:00:06.631Z,-5.72
2023-02-13T06:01:06.636Z,-5.72
2023-02-13T06:02:06.648Z,-6
2023-02-13T06:03:06.647Z,-6
2023-02-13T06:04:06.727Z,-5.83
2023-02-13T06:05:06.646Z,-6
2023-02-13T06:06:06.657Z,-6.11
2023-02-13T06:07:06.640Z,-6.28
2023-02-13T06:08:06.645Z,-5.72
2023-02-13T06:09:06.651Z,-5.56
2023-02-13T06:10:06.650Z,-5.39
2023-02-13T06:11:06.646Z,-5.56
2023-02-13T06:12:06.641Z,-5.39
2023-02-13T06:13:06.645Z,-5.22
2023-02-13T06:14:06.638Z,-5.56
2023-02-13T06:15:06.666Z,-5.39
2023-02-13T06:16:06.710Z,-5.06
2023-02-13T06:17:06.650Z,-5.22
2023-02-13T06:18:06.646Z,-5.22
2023-02-13T06:19:06.655Z,-5.22
2023-02-13T06:20:06.665Z,-5.22
2023-02-13T06:21:06.652Z,-5.06
2023-02-13T06:22:06.652Z,-5.22
2023-02-13T06:23:06.657Z,-5.39
2023-02-13T06:24:06.653Z,-5.39
2023-02-13T06:25:06.644Z,-6.28
2023-02-13T06:26:06.660Z,-6
2023-02-13T06:27:06.658Z,-5.72
2023-02-13T06:28:06.720Z,-5.72
2023-02-13T06:29:06.874Z,-6.28
2023-02-13T06:30:06.656Z,-5.83
2023-02-13T06:31:06.850Z,-5.72
2023-02-13T06:32:06.668Z,-5.72
2023-02-13T06:33:06.656Z,-5.72
2023-02-13T06:34:06.665Z,-6.28
2023-02-13T06:35:06.651Z,-5.83
2023-02-13T06:36:06.681Z,-5.83
2023-02-13T06:37:06.687Z,-5.72
2023-02-13T06:38:06.675Z,-5.72
2023-02-13T06:39:06.676Z,-5.39
2023-02-13T06:40:06.665Z,-5.22
2023-02-13T06:41:06.697Z,-5.22
2023-02-13T06:42:06.666Z,-5.39
2023-02-13T06:43:06.677Z,-5.22
2023-02-13T06:44:06.683Z,-5.39
2023-02-13T06:45:06.682Z,-5.22
2023-02-13T06:46:06.682Z,-5.22
2023-02-13T06:47:06.716Z,-5.39
2023-02-13T06:48:06.693Z,-5.22
2023-02-13T06:49:06.688Z,-5.22
2023-02-13T06:50:06.684Z,-4.5
2023-02-13T06:51:06.698Z,-3.44
2023-02-13T06:52:06.688Z,-2.89
2023-02-13T06:53:06.706Z,-2.61
2023-02-13T06:54:06.699Z,-2.44
2023-02-13T06:55:06.684Z,-2.28
2023-02-13T06:56:06.691Z,-2
2023-02-13T06:57:06.696Z,-1.94
2023-02-13T06:58:06.685Z,-2.56
2023-02-13T06:59:06.705Z,-2.28
2023-02-13T07:00:06.708Z,-2.28
2023-02-13T07:01:06.824Z,-2.72
2023-02-13T07:02:06.711Z,-2.28
2023-02-13T07:03:06.813Z,-2.28
2023-02-13T07:04:06.705Z,-2.61
2023-02-13T07:05:06.698Z,-2.61
2023-02-13T07:06:06.704Z,-2.89
2023-02-13T07:07:06.715Z,-3.17
2023-02-13T07:08:06.704Z,-3.61
2023-02-13T07:09:06.714Z,-3.72
2023-02-13T07:10:06.707Z,-3.89
2023-02-13T07:11:06.722Z,-3.89
2023-02-13T07:12:06.702Z,-3.89
2023-02-13T07:13:06.708Z,-3.89
2023-02-13T07:14:06.733Z,-3.89
2023-02-13T07:15:06.709Z,-3.72
2023-02-13T07:16:06.800Z,-3.89
2023-02-13T07:17:06.716Z,-3.61
2023-02-13T07:18:06.706Z,-3.89
2023-02-13T07:19:06.730Z,-3.44
2023-02-13T07:20:06.706Z,-3.61
2023-02-13T07:21:06.717Z,-3.28
2023-02-13T07:22:06.705Z,-3.06
2023-02-13T07:23:06.738Z,-3.06
2023-02-13T07:24:08.092Z,-3.44
2023-02-13T07:25:06.712Z,-3.44
2023-02-13T07:26:06.715Z,-3.44
2023-02-13T07:27:06.706Z,-3.44
2023-02-13T07:28:06.842Z,-3.61
2023-02-13T07:29:11.369Z,-3.28
2023-02-13T07:30:06.714Z,-3.28
2023-02-13T07:31:06.953Z,-3.72
2023-02-13T07:32:06.761Z,-3.06
2023-02-13T07:33:06.732Z,-3.17
2023-02-13T07:34:06.736Z,-3.17
2023-02-13T07:35:06.757Z,-3.17
2023-02-13T07:36:06.732Z,-2.89
2023-02-13T07:37:06.725Z,-2.72
2023-02-13T07:38:06.719Z,-3.28
2023-02-13T07:39:06.723Z,-3.06
2023-02-13T07:40:06.717Z,-2.89
2023-02-13T07:41:06.720Z,-2.61
2023-02-13T07:42:06.720Z,-2.61
2023-02-13T07:43:06.725Z,-2.72
2023-02-13T07:44:06.732Z,-3.17
2023-02-13T07:45:06.733Z,-2.28
2023-02-13T07:46:06.724Z,-2
2023-02-13T07:47:06.798Z,-2.17
2023-02-13T07:48:06.729Z,-2.44
2023-02-13T07:49:06.740Z,-2.89
2023-02-13T07:50:06.757Z,-2.22
2023-02-13T07:51:06.779Z,-2
2023-02-13T07:52:06.752Z,-1.83
2023-02-13T07:53:06.737Z,-1.67
2023-02-13T07:54:06.750Z,-2
2023-02-13T07:55:06.801Z,-2.28
2023-02-13T07:56:06.741Z,-2.44
2023-02-13T07:57:06.751Z,-2.17
2023-02-13T07:58:06.743Z,-2.61
2023-02-13T07:59:07.840Z,-3.06
2023-02-13T08:00:06.742Z,-3.44
2023-02-13T08:01:06.742Z,-3.44
2023-02-13T08:02:06.812Z,-3.61
2023-02-13T08:03:06.748Z,-3.28
2023-02-13T08:04:06.801Z,-3.17
2023-02-13T08:05:06.756Z,-2.61
2023-02-13T08:06:06.761Z,-2.72
2023-02-13T08:07:06.769Z,-3.17
2023-02-13T08:08:07.224Z,-3.61
2023-02-13T08:09:06.746Z,-3.06
2023-02-13T08:10:06.746Z,-3.17
2023-02-13T08:11:06.751Z,-2
2023-02-13T08:12:06.748Z,-1.83
2023-02-13T08:13:06.738Z,-2
2023-02-13T08:14:06.794Z,-2.44
2023-02-13T08:15:06.787Z,-1.67
2023-02-13T08:16:06.794Z,-1.44
2023-02-13T08:17:06.752Z,-1.44
2023-02-13T08:18:06.745Z,-1.11
2023-02-13T08:19:06.755Z,-1
2023-02-13T08:20:06.796Z,-1
2023-02-13T08:21:06.756Z,-1.28
2023-02-13T08:22:06.758Z,-2.17
2023-02-13T08:23:06.854Z,-2.61
2023-02-13T08:24:06.754Z,-3.61
2023-02-13T08:25:06.747Z,-2.89
2023-02-13T08:26:06.806Z,-2.72
2023-02-13T08:27:06.740Z,-3.06
2023-02-13T08:28:06.850Z,-3.44
2023-02-13T08:29:06.751Z,-3.28
2023-02-13T08:30:06.771Z,-3.06
2023-02-13T08:31:06.818Z,-3.17
2023-02-13T08:32:06.842Z,-3.17
2023-02-13T08:33:06.764Z,-3.06
2023-02-13T08:34:06.761Z,-2.89
2023-02-13T08:35:06.760Z,-3.44
2023-02-13T08:36:06.868Z,-3.06
2023-02-13T08:37:06.756Z,-2.89
2023-02-13T08:38:06.816Z,-3.17
2023-02-13T08:39:06.840Z,-2.61
2023-02-13T08:40:06.782Z,-2.61
2023-02-13T08:41:06.759Z,-2.61
2023-02-13T08:42:06.783Z,-2.61
2023-02-13T08:43:06.776Z,-3.06
2023-02-13T08:44:06.756Z,-3.06
2023-02-13T08:45:06.766Z,-2.61
2023-02-13T08:46:06.951Z,-2.89
2023-02-13T08:47:06.769Z,-2.17
2023-02-13T08:48:06.788Z,-2.17
2023-02-13T08:49:06.772Z,-2
2023-02-13T08:50:06.771Z,-2.17
2023-02-13T08:51:06.753Z,-2.17
2023-02-13T08:52:06.754Z,-2.17
2023-02-13T08:53:06.769Z,-2.17
2023-02-13T08:54:06.788Z,-2.17
2023-02-13T08:55:06.829Z,-2.17
2023-02-13T08:56:06.776Z,-2.17
2023-02-13T08:57:06.772Z,-2.17
2023-02-13T08:58:06.790Z,-2.28
2023-02-13T08:59:06.771Z,-2
2023-02-13T09:00:06.802Z,-1.83
2023-02-13T09:01:06.872Z,-1.83
2023-02-13T09:02:06.790Z,-1.83
2023-02-13T09:03:08.479Z,-1.83
2023-02-13T09:04:06.769Z,-1.83
2023-02-13T09:05:06.765Z,-1.67
2023-02-13T09:06:06.754Z,-1.67
2023-02-13T09:07:06.771Z,-1.83
2023-02-13T09:08:06.791Z,-1.67
2023-02-13T09:09:06.818Z,-1.67
2023-02-13T09:10:06.788Z,-1.67
2023-02-13T09:11:06.786Z,-1.67
2023-02-13T09:12:06.775Z,-1.83
2023-02-13T09:13:06.771Z,-1.67
2023-02-13T09:14:06.766Z,-1.67
2023-02-13T09:15:06.762Z,-1.67
2023-02-13T09:16:06.808Z,-1.67
2023-02-13T09:17:06.858Z,-1.83
2023-02-13T09:18:06.798Z,-1.83
2023-02-13T09:19:06.772Z,-1.67
2023-02-13T09:20:06.785Z,-1.44
2023-02-13T09:21:06.812Z,-1.28
2023-02-13T09:22:06.773Z,-1.56
2023-02-13T09:23:06.777Z,-1.11
2023-02-13T09:24:06.785Z,-1.11
2023-02-13T09:25:06.791Z,-1.56
2023-02-13T09:26:06.793Z,-1
2023-02-13T09:27:06.833Z,-0.83
2023-02-13T09:28:06.971Z,-1
2023-02-13T09:29:06.811Z,-0.83
2023-02-13T09:30:06.779Z,-1
2023-02-13T09:31:06.958Z,-1
2023-02-13T09:32:06.818Z,-0.83
2023-02-13T09:33:06.801Z,-0.83
2023-02-13T09:34:06.814Z,-0.67
2023-02-13T09:35:06.836Z,-1
2023-02-13T09:36:06.859Z,-0.83
2023-02-13T09:37:06.806Z,-0.83
2023-02-13T09:38:06.791Z,-0.83
2023-02-13T09:39:06.808Z,-0.83
2023-02-13T09:40:06.807Z,-0.83
2023-02-13T09:41:06.794Z,-0.56
2023-02-13T09:42:06.799Z,-0.56
2023-02-13T09:43:06.857Z,-0.39
2023-02-13T09:44:06.817Z,-0.56
2023-02-13T09:45:06.814Z,-0.39
2023-02-13T09:46:06.956Z,-0.56
2023-02-13T09:47:06.800Z,-0.56
2023-02-13T09:48:06.843Z,-0.39
2023-02-13T09:49:06.820Z,-0.28
2023-02-13T09:50:06.853Z,-0.39
2023-02-13T09:51:06.802Z,-0.17
2023-02-13T09:52:06.822Z,-0.17
2023-02-13T09:53:06.806Z,0
2023-02-13T09:54:06.820Z,-0.28
2023-02-13T09:55:06.846Z,-0.17
2023-02-13T09:56:06.802Z,0
2023-02-13T09:57:06.830Z,-0.17
2023-02-13T09:58:06.817Z,0
2023-02-13T09:59:06.873Z,0
2023-02-13T10:00:06.858Z,0
2023-02-13T10:01:06.866Z,-0.17
2023-02-13T10:02:06.829Z,-0.17
2023-02-13T10:03:06.846Z,0.28
2023-02-13T10:04:06.837Z,0
2023-02-13T10:05:06.880Z,-0.17
2023-02-13T10:06:06.839Z,0
2023-02-13T10:07:06.837Z,0.44
2023-02-13T10:08:06.838Z,0.44
2023-02-13T10:09:06.842Z,0.44
2023-02-13T10:10:06.827Z,0.28
2023-02-13T10:11:06.805Z,0.44
2023-02-13T10:12:06.857Z,0.28
2023-02-13T10:13:06.851Z,0.28
2023-02-13T10:14:06.835Z,0.61
2023-02-13T10:15:06.847Z,0.17
2023-02-13T10:16:06.891Z,0.44
2023-02-13T10:17:06.836Z,1.06
2023-02-13T10:18:06.840Z,0.89
2023-02-13T10:19:06.822Z,0.72
2023-02-13T10:20:06.846Z,0.72
2023-02-13T10:21:06.828Z,0.72
2023-02-13T10:22:06.829Z,1.06
2023-02-13T10:23:06.860Z,0.72
2023-02-13T10:24:06.883Z,1.06
2023-02-13T10:25:06.828Z,0.89
2023-02-13T10:26:06.821Z,1.06
2023-02-13T10:27:06.844Z,1.06
2023-02-13T10:28:06.913Z,1.33
2023-02-13T10:29:06.914Z,1.17
2023-02-13T10:30:06.894Z,1.33
2023-02-13T10:31:06.987Z,1.06
2023-02-13T10:32:06.906Z,1.17
2023-02-13T10:33:06.836Z,1.61
2023-02-13T10:34:06.834Z,1.33
2023-02-13T10:35:06.863Z,1.5
2023-02-13T10:36:06.880Z,1.33
2023-02-13T10:37:06.902Z,1.17
2023-02-13T10:38:06.853Z,1.33
2023-02-13T10:39:06.827Z,1.17
2023-02-13T10:40:06.823Z,1.61
2023-02-13T10:41:06.905Z,1.72
2023-02-13T10:42:06.825Z,1.33
2023-02-13T10:43:06.860Z,1.72
2023-02-13T10:44:06.826Z,1.72
2023-02-13T10:45:06.835Z,1.61
2023-02-13T10:46:06.887Z,1.89
2023-02-13T10:47:06.889Z,2.17
2023-02-13T10:48:06.840Z,2.17
2023-02-13T10:49:06.847Z,2.17
2023-02-13T10:50:06.844Z,2
2023-02-13T10:51:06.850Z,2.17
2023-02-13T10:52:06.846Z,2
2023-02-13T10:53:06.886Z,2.17
2023-02-13T10:54:06.843Z,2.17
2023-02-13T10:55:06.845Z,2
2023-02-13T10:56:06.869Z,2.17
2023-02-13T10:57:06.839Z,2.44
2023-02-13T10:58:06.841Z,2.61
2023-02-13T10:59:06.845Z,2.28
2023-02-13T11:00:06.864Z,2.28
2023-02-13T11:01:06.909Z,2.44
2023-02-13T11:02:06.846Z,2.28
2023-02-13T11:03:06.889Z,2.28
2023-02-13T11:04:06.879Z,2.44
2023-02-13T11:05:06.838Z,2.44
2023-02-13T11:06:06.849Z,2.44
2023-02-13T11:07:06.831Z,2.72
2023-02-13T11:08:06.842Z,2.61
2023-02-13T11:09:06.844Z,2.72
2023-02-13T11:10:06.850Z,2.61
2023-02-13T11:11:06.854Z,2.72
2023-02-13T11:12:06.846Z,2.61
2023-02-13T11:13:06.845Z,2.61
2023-02-13T11:14:06.844Z,3
2023-02-13T11:15:06.838Z,3
2023-02-13T11:16:06.908Z,2.89
2023-02-13T11:17:06.839Z,2.89
2023-02-13T11:18:06.835Z,2.61
2023-02-13T11:19:06.862Z,2.72
2023-02-13T11:20:06.839Z,2.61
2023-02-13T11:21:06.846Z,2.89
2023-02-13T11:22:06.847Z,2.61
2023-02-13T11:23:06.849Z,3
2023-02-13T11:24:06.837Z,2.72
2023-02-13T11:25:06.845Z,3
2023-02-13T11:26:06.848Z,2.72
2023-02-13T11:27:06.860Z,3.17
2023-02-13T11:28:06.899Z,3.17
2023-02-13T11:29:06.844Z,3.33
2023-02-13T11:30:06.846Z,3
2023-02-13T11:31:06.885Z,3
2023-02-13T11:32:07.017Z,3
2023-02-13T11:33:06.868Z,3.33
2023-02-13T11:34:06.849Z,3.44
2023-02-13T11:35:06.907Z,3.44
2023-02-13T11:36:06.850Z,3.28
2023-02-13T11:37:06.845Z,3.28
2023-02-13T11:38:06.855Z,3.44
2023-02-13T11:39:06.866Z,3.56
2023-02-13T11:40:06.869Z,3.67
2023-02-13T11:41:06.859Z,3.67
2023-02-13T11:42:06.853Z,3.39
2023-02-13T11:43:06.864Z,3.67
2023-02-13T11:44:06.853Z,4.11
2023-02-13T11:45:06.846Z,3.94
2023-02-13T11:46:06.844Z,4.11
2023-02-13T11:47:06.926Z,3.67
2023-02-13T11:48:06.858Z,4.11
2023-02-13T11:49:06.844Z,4.11
2023-02-13T11:50:06.857Z,3.94
2023-02-13T11:51:06.895Z,4.22
2023-02-13T11:52:06.861Z,4.11
2023-02-13T11:53:06.850Z,4.39
2023-02-13T11:54:06.908Z,4.22
2023-02-13T11:55:06.857Z,4.5
2023-02-13T11:56:06.877Z,4.83
2023-02-13T11:57:06.858Z,4.83
2023-02-13T11:58:06.858Z,5.39
2023-02-13T11:59:06.912Z,4.94
2023-02-13T12:00:06.877Z,4.83
2023-02-13T12:01:06.857Z,4.94
2023-02-13T12:02:06.862Z,5.11
2023-02-13T12:03:06.978Z,4.83
2023-02-13T12:04:06.867Z,4.67
2023-02-13T12:05:06.864Z,4.83
2023-02-13T12:06:06.882Z,4.94
2023-02-13T12:07:06.889Z,5.56
2023-02-13T12:08:06.869Z,5.94
2023-02-13T12:09:06.870Z,5.78
2023-02-13T12:10:06.862Z,5.39
2023-02-13T12:11:06.858Z,5.39
2023-02-13T12:12:07.652Z,5.56
2023-02-13T12:13:06.869Z,5.22
2023-02-13T12:14:06.878Z,5.22
2023-02-13T12:15:06.872Z,5.22
2023-02-13T12:16:06.898Z,5.78
2023-02-13T12:17:06.872Z,5.78
2023-02-13T12:18:06.878Z,5.56
2023-02-13T12:19:06.877Z,5.11
2023-02-13T12:20:06.882Z,5.11
2023-02-13T12:21:06.871Z,5.11
2023-02-13T12:22:06.888Z,4.94
2023-02-13T12:23:06.897Z,5.39
2023-02-13T12:24:06.879Z,5.39
2023-02-13T12:25:06.873Z,5.39
2023-02-13T12:26:06.896Z,5.39
2023-02-13T12:27:06.875Z,5.78
2023-02-13T12:28:06.919Z,5.56
2023-02-13T12:29:06.925Z,5.56
2023-02-13T12:30:06.877Z,5.39
2023-02-13T12:31:06.919Z,5.22
2023-02-13T12:32:06.870Z,5.11
2023-02-13T12:33:06.875Z,5.11
2023-02-13T12:34:06.871Z,4.67
2023-02-13T12:35:06.878Z,5.22
2023-02-13T12:36:06.874Z,5.22
2023-02-13T12:37:06.868Z,5.11
2023-02-13T12:38:06.886Z,5.39
2023-02-13T12:39:06.907Z,5.22
2023-02-13T12:40:07.970Z,5.94
2023-02-13T12:41:06.873Z,5.94
2023-02-13T12:42:06.877Z,6.06
2023-02-13T12:43:06.882Z,5.94
2023-02-13T12:44:06.871Z,5.56
2023-02-13T12:45:06.884Z,5.67
2023-02-13T12:46:06.919Z,5.78
2023-02-13T12:47:06.885Z,5.56
2023-02-13T12:48:06.902Z,5.56
2023-02-13T12:49:06.896Z,5.39
2023-02-13T12:50:06.891Z,5.78
2023-02-13T12:51:06.889Z,5.67
2023-02-13T12:52:06.875Z,5.78
2023-02-13T12:53:06.873Z,5.78
2023-02-13T12:54:06.878Z,5.78
2023-02-13T12:55:06.905Z,5.56
2023-02-13T12:56:06.876Z,5.78
2023-02-13T12:57:06.884Z,5.78
2023-02-13T12:58:06.898Z,5.67
2023-02-13T12:59:06.884Z,5.56
2023-02-13T13:00:06.884Z,5.78
2023-02-13T13:01:06.923Z,5.78
2023-02-13T13:02:06.880Z,5.67
2023-02-13T13:03:06.890Z,5.56
2023-02-13T13:04:06.886Z,5.78